createdAt,value
2019-05-18T00:01:50.388Z,87.71
2019-05-18T00:04:21.418Z,88.00
2019-05-18T00:06:52.260Z,87.99
2019-05-18T00:09:22.793Z,88.13
2019-05-18T00:11:52.728Z,88.64
2019-05-18T00:14:23.572Z,88.95
2019-05-18T00:16:54.145Z,89.39
2019-05-18T00:19:24.726Z,89.51
2019-05-18T00:21:55.228Z,89.74
2019-05-18T00:24:25.508Z,89.89
2019-05-18T00:26:55.757Z,90.24
2019-05-18T00:29:26.407Z,90.42
2019-05-18T00:31:57.215Z,90.60
2019-05-18T00:34:27.388Z,90.80
2019-05-18T00:36:57.578Z,90.74
2019-05-18T00:39:27.944Z,90.86
2019-05-18T00:41:58.548Z,90.88
2019-05-18T00:44:28.876Z,90.94
2019-05-18T00:46:58.932Z,91.17
2019-05-18T00:49:29.678Z,91.37
2019-05-18T00:52:00.293Z,91.40
2019-05-18T00:54:30.887Z,91.57
2019-05-18T00:57:01.233Z,91.84
2019-05-18T00:59:31.907Z,92.07
2019-05-18T01:02:02.388Z,92.03
2019-05-18T01:04:32.840Z,92.08
2019-05-18T01:07:03.815Z,92.24
2019-05-18T01:09:34.854Z,92.16
2019-05-18T01:12:05.217Z,92.36
2019-05-18T01:14:35.851Z,92.64
2019-05-18T01:17:06.010Z,92.83
2019-05-18T01:19:36.330Z,92.99
2019-05-18T01:22:06.698Z,92.88
2019-05-18T01:24:37.531Z,92.75
2019-05-18T01:27:07.616Z,93.04
2019-05-18T01:29:38.516Z,93.46
2019-05-18T01:32:08.595Z,93.41
2019-05-18T01:34:38.800Z,93.25
2019-05-18T01:37:09.364Z,93.39
2019-05-18T01:39:39.902Z,93.56
2019-05-18T01:42:09.934Z,93.97
2019-05-18T01:44:40.144Z,94.18
2019-05-18T01:47:10.380Z,94.35
2019-05-18T01:49:41.013Z,94.53
2019-05-18T01:52:11.633Z,94.92
2019-05-18T01:54:41.949Z,94.82
2019-05-18T01:57:12.541Z,94.79
2019-05-18T01:59:43.677Z,94.80
2019-05-18T02:02:14.049Z,94.68
2019-05-18T02:04:44.697Z,94.62
2019-05-18T02:07:15.543Z,94.56
2019-05-18T02:09:45.717Z,94.26
2019-05-18T02:12:15.995Z,94.18
2019-05-18T02:14:46.309Z,94.34
2019-05-18T02:17:16.917Z,94.54
2019-05-18T02:19:47.230Z,95.02
2019-05-18T02:22:17.885Z,95.33
2019-05-18T02:24:48.439Z,95.41
2019-05-18T02:27:18.349Z,95.30
2019-05-18T02:29:49.250Z,95.22
2019-05-18T02:32:19.443Z,94.98
2019-05-18T02:34:50.329Z,94.88
2019-05-18T02:37:20.861Z,94.85
2019-05-18T02:39:55.207Z,94.79
2019-05-18T02:42:25.814Z,94.60
2019-05-18T02:44:56.866Z,94.28
2019-05-18T02:47:27.458Z,94.20
2019-05-18T02:49:57.804Z,94.26
2019-05-18T02:52:28.329Z,94.46
2019-05-18T02:54:58.641Z,94.76
2019-05-18T02:57:29.293Z,94.95
2019-05-18T02:59:59.647Z,94.99
2019-05-18T03:02:30.355Z,94.87
2019-05-18T03:05:00.332Z,95.00
2019-05-18T03:07:30.469Z,95.41
2019-05-18T03:10:00.686Z,96.00
2019-05-18T03:12:31.445Z,96.55
2019-05-18T03:15:01.841Z,97.04
2019-05-18T03:17:32.694Z,97.24
2019-05-18T03:20:03.047Z,97.37
2019-05-18T03:22:33.274Z,97.43
2019-05-18T03:25:03.516Z,97.48
2019-05-18T03:27:34.287Z,97.37
2019-05-18T03:30:04.940Z,97.35
2019-05-18T03:32:36.142Z,97.23
2019-05-18T03:35:06.487Z,97.04
2019-05-18T03:37:36.819Z,96.73
2019-05-18T03:40:08.089Z,96.45
2019-05-18T03:42:38.111Z,95.99
2019-05-18T03:45:09.354Z,95.59
2019-05-18T03:47:39.536Z,95.09
2019-05-18T03:50:10.611Z,94.64
2019-05-18T03:52:41.138Z,94.06
2019-05-18T03:55:11.131Z,93.39
2019-05-18T03:57:42.067Z,92.62
2019-05-18T04:00:12.879Z,92.02
2019-05-18T04:02:43.652Z,91.53
2019-05-18T04:05:13.818Z,91.00
2019-05-18T04:07:44.943Z,90.49
2019-05-18T04:10:15.861Z,90.11
2019-05-18T04:12:45.847Z,89.72
2019-05-18T04:15:15.886Z,89.76
2019-05-18T04:17:45.815Z,89.46
2019-05-18T04:20:17.344Z,89.15
2019-05-18T04:22:47.622Z,89.07
2019-05-18T04:25:18.123Z,89.27
2019-05-18T04:27:48.024Z,89.43
2019-05-18T04:30:19.062Z,89.44
2019-05-18T04:32:49.908Z,89.71
2019-05-18T04:35:20.524Z,90.34
2019-05-18T04:37:50.777Z,89.70
2019-05-18T04:40:21.126Z,89.41
2019-05-18T04:42:51.620Z,88.76
2019-05-18T04:45:21.643Z,88.09
2019-05-18T04:47:51.941Z,87.74
2019-05-18T04:50:22.145Z,87.63
2019-05-18T04:52:52.594Z,87.43
2019-05-18T04:55:22.927Z,87.07
2019-05-18T04:57:53.172Z,86.65
2019-05-18T05:00:23.178Z,86.98
2019-05-18T05:02:53.089Z,86.56
2019-05-18T05:05:23.073Z,85.99
2019-05-18T05:07:53.538Z,85.54
2019-05-18T05:10:23.862Z,85.17
2019-05-18T05:12:54.209Z,84.97
2019-05-18T05:15:24.602Z,84.04
2019-05-18T05:17:54.555Z,83.12
2019-05-18T05:20:24.492Z,83.03
2019-05-18T05:22:54.411Z,82.19
2019-05-18T05:25:24.678Z,81.74
2019-05-18T05:27:55.187Z,81.10
2019-05-18T05:30:25.439Z,79.40
2019-05-18T05:32:56.279Z,78.71
2019-05-18T05:35:26.799Z,78.22
2019-05-18T05:37:57.322Z,77.21
2019-05-18T05:40:28.458Z,76.28
2019-05-18T05:42:59.312Z,73.21
2019-05-18T05:45:29.259Z,72.21
2019-05-18T05:47:59.220Z,70.36
2019-05-18T05:50:35.963Z,68.98
2019-05-18T05:53:00.893Z,67.38
2019-05-18T05:55:31.233Z,54.35
2019-05-18T05:58:01.836Z,38.95
2019-05-18T06:00:32.069Z,31.57
2019-05-18T06:03:02.301Z,29.64
2019-05-18T06:05:32.840Z,29.16
2019-05-18T06:08:03.475Z,28.65
2019-05-18T06:10:33.365Z,27.12
2019-05-18T06:13:04.159Z,26.52
2019-05-18T06:15:34.399Z,26.85
2019-05-18T06:18:04.966Z,26.00
2019-05-18T06:20:50.114Z,25.73
2019-05-18T06:23:08.076Z,24.93
2019-05-18T06:25:38.395Z,25.85
2019-05-18T06:28:08.374Z,24.82
2019-05-18T06:30:38.661Z,25.51
2019-05-18T06:33:08.972Z,25.72
2019-05-18T06:35:39.489Z,24.76
2019-05-18T06:38:10.016Z,29.16
2019-05-18T06:40:40.247Z,34.54
2019-05-18T06:43:10.466Z,40.76
2019-05-18T06:45:40.397Z,41.70
2019-05-18T06:48:10.536Z,44.12
2019-05-18T06:50:40.746Z,46.24
2019-05-18T06:53:10.923Z,46.77
2019-05-18T06:55:41.773Z,48.52
2019-05-18T06:58:12.841Z,50.25
2019-05-18T07:00:43.144Z,49.18
2019-05-18T07:03:14.060Z,51.02
2019-05-18T07:05:44.633Z,51.79
2019-05-18T07:08:14.597Z,51.60
2019-05-18T07:10:44.568Z,51.13
2019-05-18T07:13:14.952Z,51.02
2019-05-18T07:15:46.127Z,50.25
2019-05-18T07:18:16.746Z,48.85
2019-05-18T07:20:47.287Z,49.88
2019-05-18T07:23:17.365Z,50.90
2019-05-18T07:25:47.285Z,50.01
2019-05-18T07:28:17.640Z,49.35
2019-05-18T07:30:48.456Z,50.59
2019-05-18T07:33:19.488Z,50.40
2019-05-18T07:35:50.455Z,50.15
2019-05-18T07:38:20.685Z,49.34
2019-05-18T07:40:51.199Z,49.60
2019-05-18T07:43:21.473Z,49.28
2019-05-18T07:45:52.264Z,49.01
2019-05-18T07:48:22.833Z,49.32
2019-05-18T07:50:53.534Z,47.43
2019-05-18T07:53:23.535Z,48.28
2019-05-18T07:55:53.848Z,48.15
2019-05-18T07:58:24.489Z,46.28
2019-05-18T08:00:54.896Z,46.66
2019-05-18T08:03:25.667Z,46.09
2019-05-18T08:05:56.445Z,45.14
2019-05-18T08:08:26.976Z,45.09
2019-05-18T08:10:57.761Z,45.26
2019-05-18T08:13:28.588Z,44.80
2019-05-18T08:15:59.239Z,45.20
2019-05-18T08:18:30.048Z,45.02
2019-05-18T08:21:00.966Z,44.61
2019-05-18T08:23:31.937Z,44.79
2019-05-18T08:26:02.558Z,44.34
2019-05-18T08:28:33.699Z,43.72
2019-05-18T08:31:03.812Z,43.18
2019-05-18T08:33:34.885Z,42.25
2019-05-18T08:36:05.301Z,42.27
2019-05-18T08:38:35.837Z,41.33
2019-05-18T08:41:05.928Z,41.17
2019-05-18T08:43:36.995Z,40.96
2019-05-18T08:46:07.620Z,41.59
2019-05-18T08:48:38.591Z,40.22
2019-05-18T08:51:08.616Z,39.54
2019-05-18T08:53:40.005Z,38.89
2019-05-18T08:56:10.249Z,36.74
2019-05-18T08:58:40.988Z,31.07
2019-05-18T09:01:10.925Z,28.58
2019-05-18T09:03:41.537Z,27.40
2019-05-18T09:06:11.807Z,27.54
2019-05-18T09:08:41.733Z,26.50
2019-05-18T09:11:11.975Z,24.88
2019-05-18T09:13:42.193Z,24.21
2019-05-18T09:16:12.417Z,25.56
2019-05-18T09:18:42.962Z,25.51
2019-05-18T09:21:12.892Z,25.20
2019-05-18T09:23:42.919Z,24.66
2019-05-18T09:26:13.714Z,24.14
2019-05-18T09:28:43.694Z,24.47
2019-05-18T09:31:13.686Z,23.58
2019-05-18T09:33:44.003Z,25.00
2019-05-18T09:36:13.934Z,23.72
2019-05-18T09:38:44.217Z,25.09
2019-05-18T09:41:14.730Z,25.53
2019-05-18T09:43:44.723Z,26.17
2019-05-18T09:46:15.636Z,25.35
2019-05-18T09:48:45.788Z,24.17
2019-05-18T09:51:16.074Z,25.13
2019-05-18T09:53:51.629Z,25.05
2019-05-18T09:56:18.946Z,24.08
2019-05-18T09:58:49.466Z,25.56
2019-05-18T10:01:19.793Z,27.15
2019-05-18T10:03:50.547Z,25.73
2019-05-18T10:06:20.845Z,25.85
2019-05-18T10:08:51.127Z,24.50
2019-05-18T10:11:21.102Z,25.32
2019-05-18T10:13:51.288Z,26.36
2019-05-18T10:16:21.847Z,26.20
2019-05-18T10:18:51.764Z,28.31
2019-05-18T10:21:22.361Z,27.28
2019-05-18T10:23:52.339Z,26.90
2019-05-18T10:26:22.280Z,29.64
2019-05-18T10:28:52.542Z,30.99
2019-05-18T10:31:23.070Z,32.75
2019-05-18T10:33:53.708Z,32.63
2019-05-18T10:36:24.354Z,33.44
2019-05-18T10:38:55.141Z,33.68
2019-05-18T10:41:25.375Z,33.95
2019-05-18T10:43:56.643Z,34.63
2019-05-18T10:46:27.273Z,34.83
2019-05-18T10:48:57.613Z,33.72
2019-05-18T10:51:27.844Z,33.91
2019-05-18T10:53:58.041Z,34.35
2019-05-18T10:56:31.201Z,34.18
2019-05-18T10:59:02.085Z,35.10
2019-05-18T11:01:32.139Z,34.91
2019-05-18T11:04:02.562Z,34.49
2019-05-18T11:06:32.862Z,35.46
2019-05-18T11:09:02.885Z,35.68
2019-05-18T11:11:33.907Z,36.27
2019-05-18T11:14:05.063Z,36.38
2019-05-18T11:16:35.583Z,36.74
2019-05-18T11:19:09.551Z,36.07
2019-05-18T11:21:40.291Z,35.82
2019-05-18T11:24:10.309Z,35.13
2019-05-18T11:26:40.675Z,35.82
2019-05-18T11:29:11.215Z,35.37
2019-05-18T11:31:41.764Z,36.54
2019-05-18T11:34:12.353Z,35.22
2019-05-18T11:36:43.304Z,34.51
2019-05-18T11:39:14.133Z,35.21
2019-05-18T11:41:44.637Z,35.21
2019-05-18T11:44:14.562Z,35.77
2019-05-18T11:46:44.484Z,35.61
2019-05-18T11:49:14.423Z,35.97
2019-05-18T11:51:44.735Z,36.09
2019-05-18T11:54:15.001Z,35.28
2019-05-18T11:56:46.900Z,35.15
2019-05-18T11:59:16.877Z,34.93
2019-05-18T12:01:46.872Z,34.97
2019-05-18T12:04:17.194Z,35.02
2019-05-18T12:06:47.402Z,35.15
2019-05-18T12:09:17.578Z,34.87
2019-05-18T12:11:47.505Z,34.77
2019-05-18T12:14:17.733Z,35.56
2019-05-18T12:16:48.068Z,35.85
2019-05-18T12:19:18.298Z,35.24
2019-05-18T12:21:49.139Z,34.56
2019-05-18T12:24:19.553Z,34.65
2019-05-18T12:26:50.092Z,35.22
2019-05-18T12:29:20.732Z,35.77
2019-05-18T12:31:51.336Z,35.49
2019-05-18T12:34:22.173Z,34.49
2019-05-18T12:36:52.831Z,35.28
2019-05-18T12:39:22.823Z,35.06
2019-05-18T12:41:53.681Z,34.56
2019-05-18T12:44:24.048Z,34.45
2019-05-18T12:46:54.463Z,34.58
2019-05-18T12:49:25.056Z,34.44
2019-05-18T12:51:55.678Z,34.53
2019-05-18T12:54:30.858Z,34.64
2019-05-18T12:56:57.683Z,34.03
2019-05-18T12:59:27.972Z,33.00
2019-05-18T13:01:58.604Z,32.77
2019-05-18T13:04:28.862Z,32.93
2019-05-18T13:06:59.602Z,32.30
2019-05-18T13:09:30.104Z,32.02
2019-05-18T13:12:01.181Z,31.44
2019-05-18T13:14:32.070Z,31.98
2019-05-18T13:17:02.925Z,31.78
2019-05-18T13:19:33.449Z,31.47
2019-05-18T13:22:03.810Z,32.19
2019-05-18T13:24:44.775Z,31.79
2019-05-18T13:27:05.436Z,32.57
2019-05-18T13:29:35.801Z,31.02
2019-05-18T13:32:06.403Z,31.40
2019-05-18T13:34:37.247Z,31.71
2019-05-18T13:37:07.256Z,31.46
2019-05-18T13:39:37.511Z,31.44
2019-05-18T13:42:07.939Z,31.37
2019-05-18T13:44:38.345Z,32.17
2019-05-18T13:47:08.597Z,32.08
2019-05-18T13:49:39.196Z,32.08
2019-05-18T13:52:09.842Z,31.43
2019-05-18T13:54:40.256Z,31.20
2019-05-18T13:57:10.565Z,31.84
2019-05-18T13:59:41.401Z,30.89
2019-05-18T14:02:11.745Z,31.40
2019-05-18T14:04:42.691Z,31.40
2019-05-18T14:07:12.689Z,31.34
2019-05-18T14:09:43.046Z,30.95
2019-05-18T14:12:13.786Z,32.03
2019-05-18T14:14:44.636Z,31.42
2019-05-18T14:17:15.849Z,31.79
2019-05-18T14:19:46.624Z,30.67
